Time;durP1;ratioP1;P1;durP2;ratioP2;P2;SDS_P1;SDS_P2;PMS_P1;PMS_P2;Temp;Humidity;BMP_temperature;BMP_pressure;BME280_temperature;BME280_humidity;BME280_pressure;Samples;Min_cycle;Max_cycle;Signal;HPM_P1;HPM_P2
2021/03/30 00:02:02;;;;;;;43.00;30.53;;;9.90;99.90;;;;;;4967557;28;20215;-83
2021/03/30 00:04:30;;;;;;;49.50;31.63;;;9.90;99.90;;;;;;4959844;28;20210;-83
2021/03/30 00:06:58;;;;;;;45.70;31.37;;;9.90;99.90;;;;;;4944757;28;20212;-83
2021/03/30 00:09:26;;;;;;;44.57;31.37;;;9.80;99.90;;;;;;4926006;28;20242;-83
2021/03/30 00:11:54;;;;;;;46.70;32.90;;;9.90;99.90;;;;;;4946782;28;20208;-83
2021/03/30 00:14:23;;;;;;;44.23;30.73;;;9.90;99.90;;;;;;4942708;28;20428;-84
2021/03/30 00:16:50;;;;;;;42.60;29.60;;;9.90;99.90;;;;;;4958007;28;20208;-84
2021/03/30 00:19:18;;;;;;;44.33;30.10;;;9.90;99.90;;;;;;4951861;28;20205;-85
2021/03/30 00:21:45;;;;;;;47.20;30.77;;;9.90;99.90;;;;;;4948833;28;20212;-83
2021/03/30 00:24:13;;;;;;;43.63;30.87;;;9.90;99.90;;;;;;4951048;28;20280;-86
2021/03/30 00:26:40;;;;;;;44.07;29.37;;;9.90;99.90;;;;;;4946175;28;20215;-85
2021/03/30 00:29:08;;;;;;;48.17;31.90;;;9.90;99.90;;;;;;4952147;28;20651;-83
2021/03/30 00:31:36;;;;;;;42.90;30.23;;;9.90;99.90;;;;;;4950651;28;20300;-84
2021/03/30 00:34:06;;;;;;;44.70;30.70;;;10.00;99.90;;;;;;4968835;28;20204;-83
2021/03/30 00:36:33;;;;;;;45.47;30.87;;;9.90;99.90;;;;;;4970964;28;20424;-84
2021/03/30 00:39:01;;;;;;;45.60;30.57;;;9.90;99.90;;;;;;4968142;28;20191;-84
2021/03/30 00:41:28;;;;;;;44.40;31.20;;;9.90;99.90;;;;;;4974316;28;20187;-85
2021/03/30 00:43:56;;;;;;;46.40;30.97;;;9.90;99.90;;;;;;4963407;28;20236;-84
2021/03/30 00:46:26;;;;;;;43.17;31.00;;;9.90;99.90;;;;;;4968403;28;20217;-82
2021/03/30 00:48:54;;;;;;;45.90;30.43;;;9.90;99.90;;;;;;4966150;28;20212;-84
2021/03/30 00:51:22;;;;;;;43.63;29.80;;;9.80;99.90;;;;;;4947203;28;20211;-84
2021/03/30 00:53:50;;;;;;;49.03;31.60;;;9.90;99.90;;;;;;4947924;28;20212;-83
2021/03/30 00:56:17;;;;;;;48.27;31.20;;;9.80;99.90;;;;;;4944890;28;20208;-83
2021/03/30 00:58:48;;;;;;;48.13;32.17;;;9.70;99.90;;;;;;4945666;28;20193;-84
2021/03/30 01:01:15;;;;;;;44.13;30.47;;;9.80;99.90;;;;;;4945383;28;20247;-84
2021/03/30 01:03:43;;;;;;;50.57;31.90;;;9.70;99.90;;;;;;4942177;28;20247;-84
2021/03/30 01:06:11;;;;;;;48.27;32.10;;;9.70;99.90;;;;;;4946625;28;21013;-83
2021/03/30 01:08:53;;;;;;;49.47;32.43;;;9.80;99.90;;;;;;4944107;28;20213;-84
2021/03/30 01:11:32;;;;;;;47.73;31.73;;;9.70;99.90;;;;;;4949914;28;20209;-84
2021/03/30 01:14:14;;;;;;;48.97;31.53;;;9.80;99.90;;;;;;4945053;28;20210;-85
2021/03/30 01:16:48;;;;;;;48.73;32.43;;;9.80;99.90;;;;;;4945087;28;20212;-84
2021/03/30 01:19:28;;;;;;;47.20;32.00;;;9.70;99.90;;;;;;4950947;28;20210;-83
2021/03/30 01:22:48;;;;;;;49.40;33.73;;;9.80;99.90;;;;;;4951775;28;20205;-83
2021/03/30 01:25:16;;;;;;;51.93;33.30;;;9.80;99.90;;;;;;4876381;29;20217;-84
2021/03/30 01:27:58;;;;;;;49.40;32.73;;;9.80;99.90;;;;;;4881258;29;20525;-83
2021/03/30 01:30:28;;;;;;;48.27;32.87;;;9.70;99.90;;;;;;4883805;29;20240;-83
2021/03/30 01:33:01;;;;;;;47.00;32.23;;;9.70;99.90;;;;;;4866210;29;20616;-83
2021/03/30 01:35:29;;;;;;;53.17;34.60;;;9.70;99.90;;;;;;4867659;29;20702;-84
2021/03/30 01:37:58;;;;;;;49.70;31.87;;;9.70;99.90;;;;;;4872063;29;20219;-84
2021/03/30 01:40:29;;;;;;;45.97;32.40;;;9.80;99.90;;;;;;4866043;29;20281;-84
2021/03/30 01:42:57;;;;;;;53.63;34.63;;;9.80;99.90;;;;;;4868238;29;20294;-84
2021/03/30 01:45:27;;;;;;;52.17;33.47;;;9.80;99.90;;;;;;4866979;29;20759;-85
2021/03/30 01:47:56;;;;;;;48.07;32.33;;;9.90;99.90;;;;;;4885374;29;20256;-83
2021/03/30 01:50:24;;;;;;;50.63;32.03;;;9.70;99.90;;;;;;4884880;29;20244;-84
2021/03/30 01:52:53;;;;;;;43.10;31.30;;;9.80;99.90;;;;;;4867154;29;21398;-83
2021/03/30 01:55:21;;;;;;;47.67;31.60;;;9.70;99.90;;;;;;4893700;28;20221;-84
2021/03/30 01:57:55;;;;;;;49.47;32.80;;;9.60;99.90;;;;;;4938315;28;20801;-84
2021/03/30 02:00:24;;;;;;;47.07;32.13;;;9.70;99.90;;;;;;4946820;28;20657;-85
2021/03/30 02:02:53;;;;;;;47.83;30.03;;;9.70;99.90;;;;;;4939002;28;21005;-85
2021/03/30 02:05:22;;;;;;;47.67;31.63;;;9.70;99.90;;;;;;4946372;28;20207;-84
2021/03/30 02:07:54;;;;;;;48.07;32.37;;;9.90;99.90;;;;;;4944381;28;20228;-85
2021/03/30 02:10:31;;;;;;;48.07;31.93;;;9.70;99.90;;;;;;4940156;28;20225;-82
2021/03/30 02:13:00;;;;;;;47.17;30.63;;;9.80;99.90;;;;;;4946983;28;20461;-83
2021/03/30 02:15:28;;;;;;;46.60;32.30;;;9.80;99.90;;;;;;4941869;28;20208;-84
2021/03/30 02:18:04;;;;;;;45.83;29.97;;;9.80;99.90;;;;;;4944210;28;20698;-84
2021/03/30 02:20:37;;;;;;;41.20;30.63;;;9.90;99.90;;;;;;4946221;28;20852;-82
2021/03/30 02:23:10;;;;;;;49.93;32.23;;;9.90;99.90;;;;;;4940166;28;20523;-83
2021/03/30 02:25:41;;;;;;;40.57;30.03;;;9.90;99.90;;;;;;4945921;28;20201;-83
2021/03/30 02:28:15;;;;;;;41.00;28.43;;;9.90;99.90;;;;;;4945306;28;20211;-83
2021/03/30 02:30:43;;;;;;;48.93;30.30;;;9.90;99.90;;;;;;4971860;28;20271;-85
2021/03/30 02:33:14;;;;;;;45.20;29.97;;;9.90;99.90;;;;;;4961816;28;20201;-83
2021/03/30 02:35:42;;;;;;;44.10;29.20;;;10.00;99.90;;;;;;4945885;28;20196;-84
2021/03/30 02:38:10;;;;;;;43.63;29.37;;;9.90;99.90;;;;;;4953223;28;20213;-83
2021/03/30 02:40:39;;;;;;;40.53;29.10;;;9.90;99.90;;;;;;4944465;28;20240;-85
2021/03/30 02:43:09;;;;;;;40.80;28.73;;;10.00;99.90;;;;;;4950880;28;20763;-83
2021/03/30 02:45:38;;;;;;;41.20;29.03;;;10.00;99.90;;;;;;4946290;28;20496;-85
2021/03/30 02:48:09;;;;;;;45.20;29.60;;;10.00;99.90;;;;;;4949053;28;20224;-84
2021/03/30 02:50:39;;;;;;;39.77;28.57;;;10.00;99.90;;;;;;4964001;28;20774;-84
2021/03/30 02:53:09;;;;;;;44.57;28.30;;;10.10;99.90;;;;;;4970808;28;20425;-84
2021/03/30 02:55:37;;;;;;;40.60;27.80;;;10.10;99.90;;;;;;4969191;28;20208;-84
2021/03/30 02:58:05;;;;;;;42.07;29.00;;;10.10;99.90;;;;;;4940334;28;20342;-83
2021/03/30 03:00:34;;;;;;;38.47;26.80;;;10.10;99.90;;;;;;4948847;28;20549;-84
2021/03/30 03:03:04;;;;;;;38.57;28.30;;;10.10;99.90;;;;;;4948264;28;20248;-84
2021/03/30 03:05:32;;;;;;;40.43;28.40;;;10.10;99.90;;;;;;4944439;28;20212;-84
2021/03/30 03:08:02;;;;;;;36.07;27.37;;;10.10;99.90;;;;;;4950617;28;20631;-83
2021/03/30 03:10:30;;;;;;;37.67;27.83;;;10.10;99.90;;;;;;4949224;28;20510;-83
2021/03/30 03:12:58;;;;;;;40.33;29.03;;;10.10;99.90;;;;;;4952008;28;20206;-83
2021/03/30 03:15:27;;;;;;;36.97;28.23;;;10.10;99.90;;;;;;4950475;28;20253;-84
2021/03/30 03:17:56;;;;;;;42.70;29.27;;;10.30;99.90;;;;;;4951138;28;20205;-84
2021/03/30 03:20:24;;;;;;;43.27;28.33;;;10.10;99.90;;;;;;4935078;28;20230;-83
2021/03/30 03:22:52;;;;;;;43.50;28.43;;;10.10;99.90;;;;;;4946172;28;20553;-84
2021/03/30 03:25:21;;;;;;;38.47;26.80;;;10.20;99.90;;;;;;4951487;28;20203;-84
2021/03/30 03:27:49;;;;;;;40.80;28.83;;;10.20;99.90;;;;;;4946054;28;20239;-83
2021/03/30 03:30:19;;;;;;;45.67;28.43;;;10.30;99.90;;;;;;4953988;28;20230;-83
2021/03/30 03:32:46;;;;;;;46.10;27.70;;;10.30;99.90;;;;;;4958740;28;20192;-83
2021/03/30 03:35:14;;;;;;;42.03;28.43;;;10.20;99.90;;;;;;4972794;28;20189;-83
2021/03/30 03:37:43;;;;;;;42.20;28.17;;;10.20;99.90;;;;;;4963664;28;20214;-83
2021/03/30 03:40:13;;;;;;;38.67;27.20;;;10.30;99.90;;;;;;4961538;28;20209;-85
2021/03/30 03:42:42;;;;;;;39.23;27.60;;;10.20;99.90;;;;;;4963413;28;20215;-83
2021/03/30 03:45:11;;;;;;;36.70;27.40;;;10.20;99.90;;;;;;4965206;28;20824;-84
2021/03/30 03:47:39;;;;;;;34.77;26.60;;;10.10;99.90;;;;;;4957785;28;20221;-84
2021/03/30 03:50:08;;;;;;;41.27;28.47;;;10.10;99.90;;;;;;4955159;28;20739;-84
2021/03/30 03:52:38;;;;;;;41.67;28.50;;;10.00;99.90;;;;;;4935132;28;20213;-84
2021/03/30 03:55:09;;;;;;;42.43;29.07;;;10.00;99.90;;;;;;4952445;28;20212;-83
2021/03/30 03:57:45;;;;;;;40.07;28.67;;;10.00;99.90;;;;;;4952530;28;20296;-83
2021/03/30 04:00:14;;;;;;;39.07;27.90;;;10.00;99.90;;;;;;4965618;28;20199;-83
2021/03/30 04:02:46;;;;;;;41.03;28.77;;;10.00;99.90;;;;;;4973224;28;20206;-83
2021/03/30 04:05:17;;;;;;;40.97;30.03;;;10.00;99.90;;;;;;4968990;28;20199;-83
2021/03/30 04:07:48;;;;;;;43.67;31.53;;;9.90;99.90;;;;;;4969548;28;20767;-83
2021/03/30 04:10:21;;;;;;;46.17;31.37;;;9.90;99.90;;;;;;4968842;28;20224;-84
2021/03/30 04:12:50;;;;;;;43.30;30.07;;;10.00;99.90;;;;;;4973442;28;21083;-84
2021/03/30 04:15:21;;;;;;;44.43;31.03;;;10.00;99.90;;;;;;4965708;28;20775;-84
2021/03/30 04:17:49;;;;;;;45.17;30.67;;;9.90;99.90;;;;;;4968184;28;20269;-85
2021/03/30 04:20:18;;;;;;;45.87;31.37;;;9.90;99.90;;;;;;4973484;28;20211;-84
2021/03/30 04:22:47;;;;;;;46.47;32.30;;;9.90;99.90;;;;;;4966652;28;20208;-84
2021/03/30 04:25:15;;;;;;;47.63;32.87;;;9.90;99.90;;;;;;4953095;28;20236;-84
2021/03/30 04:27:42;;;;;;;48.53;32.83;;;9.90;99.90;;;;;;4952610;28;20198;-84
2021/03/30 04:30:12;;;;;;;46.83;33.43;;;9.90;99.90;;;;;;4946270;28;20225;-83
2021/03/30 04:32:39;;;;;;;46.10;33.13;;;9.90;99.90;;;;;;4952302;28;20205;-84
2021/03/30 04:35:08;;;;;;;46.87;31.93;;;9.90;99.90;;;;;;4949423;28;20221;-84
2021/03/30 04:37:36;;;;;;;49.43;32.13;;;9.90;99.90;;;;;;4954218;28;20264;-82
2021/03/30 04:40:05;;;;;;;48.97;33.07;;;9.90;99.90;;;;;;4949953;28;20216;-83
2021/03/30 04:42:33;;;;;;;47.40;32.80;;;9.90;99.90;;;;;;4952163;28;20235;-83
2021/03/30 04:45:01;;;;;;;45.10;32.33;;;9.90;99.90;;;;;;4953842;28;20625;-83
2021/03/30 04:47:29;;;;;;;48.63;32.40;;;10.20;99.90;;;;;;4952150;28;20818;-83
2021/03/30 04:49:56;;;;;;;47.33;31.43;;;10.00;99.90;;;;;;4952677;28;20240;-84
2021/03/30 04:52:24;;;;;;;48.17;33.47;;;10.00;99.90;;;;;;4950601;28;20686;-85
2021/03/30 04:54:52;;;;;;;47.43;32.70;;;10.00;99.90;;;;;;4951365;28;20185;-84
2021/03/30 04:57:19;;;;;;;50.27;32.73;;;10.00;99.90;;;;;;4971583;28;20270;-83
2021/03/30 04:59:49;;;;;;;49.50;33.53;;;10.10;99.90;;;;;;4968785;28;20205;-83
2021/03/30 05:02:16;;;;;;;45.37;32.43;;;10.10;99.90;;;;;;4946540;28;20216;-85
2021/03/30 05:04:45;;;;;;;44.17;31.33;;;10.10;99.90;;;;;;4944414;28;20213;-85
2021/03/30 05:07:13;;;;;;;48.60;33.40;;;10.20;99.90;;;;;;4942382;28;20938;-84
2021/03/30 05:09:41;;;;;;;50.80;32.47;;;10.10;99.90;;;;;;4951134;28;20238;-84
2021/03/30 05:12:09;;;;;;;50.60;32.90;;;10.20;99.90;;;;;;4950600;28;20212;-84
2021/03/30 05:14:37;;;;;;;41.77;31.00;;;10.20;99.90;;;;;;4975474;28;20268;-84
2021/03/30 05:17:05;;;;;;;43.77;31.13;;;10.10;99.90;;;;;;4960814;28;20216;-83
2021/03/30 05:19:32;;;;;;;50.67;32.90;;;10.10;99.90;;;;;;4961122;28;20205;-84
2021/03/30 05:22:01;;;;;;;46.87;32.53;;;10.20;99.90;;;;;;4951269;28;20211;-84
2021/03/30 05:24:29;;;;;;;46.03;32.60;;;10.20;99.90;;;;;;4946826;28;20208;-84
2021/03/30 05:26:56;;;;;;;45.20;31.80;;;10.20;99.90;;;;;;4962262;28;20197;-83
2021/03/30 05:29:24;;;;;;;47.27;34.47;;;10.30;99.90;;;;;;4951915;28;20773;-86
2021/03/30 05:31:52;;;;;;;48.13;33.43;;;10.30;99.90;;;;;;4948597;28;20229;-85
2021/03/30 05:34:20;;;;;;;53.17;37.40;;;10.40;99.90;;;;;;4945218;28;20748;-85
2021/03/30 05:36:47;;;;;;;49.37;37.10;;;10.60;99.90;;;;;;4942440;28;20217;-82
2021/03/30 05:39:16;;;;;;;59.23;36.70;;;10.50;99.90;;;;;;4949934;28;20882;-84
2021/03/30 05:41:47;;;;;;;52.90;39.33;;;10.50;99.90;;;;;;4954627;28;20673;-85
2021/03/30 05:44:17;;;;;;;60.77;43.03;;;10.50;99.90;;;;;;4965794;28;20200;-84
2021/03/30 05:46:52;;;;;;;56.73;39.33;;;10.70;99.90;;;;;;4966640;28;20197;-83
2021/03/30 05:49:20;;;;;;;50.23;35.60;;;10.60;99.90;;;;;;4956619;28;20223;-85
2021/03/30 05:51:47;;;;;;;52.03;36.97;;;10.70;99.90;;;;;;4954700;28;20236;-85
2021/03/30 05:54:19;;;;;;;55.00;37.23;;;10.80;99.90;;;;;;4947220;28;20304;-83
2021/03/30 05:57:06;;;;;;;54.93;36.90;;;11.00;99.90;;;;;;4947553;28;20216;-84
2021/03/30 05:59:35;;;;;;;58.43;38.40;;;10.90;99.90;;;;;;4952499;28;20218;-84
2021/03/30 06:02:10;;;;;;;63.17;39.33;;;10.80;99.90;;;;;;4949815;28;20236;-83
2021/03/30 06:04:38;;;;;;;58.73;39.97;;;10.90;99.90;;;;;;4948275;28;20224;-83
2021/03/30 06:07:06;;;;;;;60.53;41.13;;;11.10;99.90;;;;;;4942673;28;20259;-84
2021/03/30 06:09:35;;;;;;;63.40;39.93;;;11.00;99.90;;;;;;4954765;28;20280;-85
2021/03/30 06:12:05;;;;;;;68.17;40.70;;;11.10;99.90;;;;;;4942415;28;20272;-84
2021/03/30 06:14:44;;;;;;;59.50;39.23;;;11.20;99.90;;;;;;4945046;28;20205;-84
2021/03/30 06:17:13;;;;;;;59.37;40.33;;;11.20;99.90;;;;;;4941337;28;20212;-84
2021/03/30 06:19:53;;;;;;;63.87;40.63;;;11.30;99.90;;;;;;4946925;28;20205;-84
2021/03/30 06:22:23;;;;;;;66.50;38.20;;;11.30;99.90;;;;;;4939291;28;20243;-83
2021/03/30 06:24:53;;;;;;;65.37;38.50;;;11.30;99.90;;;;;;4937361;28;20204;-83
2021/03/30 06:27:29;;;;;;;62.83;37.93;;;11.20;99.90;;;;;;4918170;28;20739;-85
2021/03/30 06:30:00;;;;;;;71.90;39.27;;;11.20;99.90;;;;;;4940526;28;20675;-83
2021/03/30 06:32:28;;;;;;;60.03;38.00;;;11.30;99.90;;;;;;4939162;28;20560;-83
2021/03/30 06:35:11;;;;;;;68.03;39.97;;;11.30;99.90;;;;;;4942255;28;20218;-83
2021/03/30 06:37:39;;;;;;;68.03;39.30;;;11.30;99.90;;;;;;4943258;28;20211;-83
2021/03/30 06:40:19;;;;;;;60.37;38.77;;;11.40;99.90;;;;;;4950215;28;20208;-84
2021/03/30 06:42:51;;;;;;;60.37;37.77;;;11.50;99.90;;;;;;4940614;28;20216;-86
2021/03/30 06:45:22;;;;;;;62.00;37.93;;;11.60;99.90;;;;;;4943632;28;20205;-84
2021/03/30 06:47:53;;;;;;;58.90;37.60;;;11.60;99.90;;;;;;4948528;28;20205;-83
2021/03/30 06:50:25;;;;;;;67.27;37.77;;;11.70;99.90;;;;;;4938180;28;20668;-84
2021/03/30 06:52:55;;;;;;;56.30;36.73;;;11.70;99.90;;;;;;4934617;28;20210;-84
2021/03/30 06:55:30;;;;;;;54.33;34.53;;;11.70;99.90;;;;;;4941970;28;20345;-83
2021/03/30 06:58:04;;;;;;;55.47;34.10;;;11.70;99.90;;;;;;4943166;28;20272;-84
2021/03/30 07:00:35;;;;;;;51.00;33.07;;;11.80;99.90;;;;;;4943661;28;20205;-86
2021/03/30 07:03:05;;;;;;;48.83;31.60;;;11.80;99.90;;;;;;4940423;28;20202;-82
2021/03/30 07:05:38;;;;;;;48.53;32.33;;;11.80;99.90;;;;;;4931587;28;20212;-85
2021/03/30 07:08:08;;;;;;;43.67;29.80;;;11.80;99.90;;;;;;4957244;28;20216;-84
2021/03/30 07:10:39;;;;;;;41.37;28.93;;;11.90;99.90;;;;;;4966710;28;20595;-83
2021/03/30 07:13:11;;;;;;;44.17;29.13;;;12.00;99.90;;;;;;4960348;28;20187;-84
2021/03/30 07:15:40;;;;;;;42.23;28.77;;;12.20;99.90;;;;;;4947095;28;20215;-83
2021/03/30 07:18:24;;;;;;;41.40;27.27;;;12.30;99.90;;;;;;4958478;28;20209;-85
2021/03/30 07:21:00;;;;;;;36.23;27.50;;;12.60;99.90;;;;;;4955719;28;20603;-84
2021/03/30 07:23:33;;;;;;;36.00;27.83;;;12.50;99.90;;;;;;4966637;28;20284;-84
2021/03/30 07:26:09;;;;;;;39.73;28.13;;;12.60;99.90;;;;;;4960206;28;20219;-83
2021/03/30 07:28:41;;;;;;;39.90;29.43;;;12.70;99.90;;;;;;4957505;28;20578;-82
2021/03/30 07:31:15;;;;;;;35.97;29.03;;;12.80;99.90;;;;;;4956291;28;20233;-84
2021/03/30 07:33:47;;;;;;;39.63;28.40;;;13.00;99.90;;;;;;4934575;28;20451;-87
2021/03/30 07:36:18;;;;;;;37.93;27.43;;;13.00;99.90;;;;;;4955387;28;20209;-84
2021/03/30 07:38:47;;;;;;;38.27;28.07;;;13.10;99.90;;;;;;4931920;28;20264;-84
2021/03/30 07:41:20;;;;;;;39.10;28.87;;;13.20;99.90;;;;;;4944066;28;20833;-83
2021/03/30 07:43:50;;;;;;;34.97;25.90;;;13.40;99.90;;;;;;4938078;28;20208;-84
2021/03/30 07:46:28;;;;;;;32.77;25.33;;;13.40;98.80;;;;;;4939851;28;20284;-85
2021/03/30 07:48:56;;;;;;;32.53;25.13;;;13.60;99.70;;;;;;4945972;28;20225;-84
2021/03/30 07:51:34;;;;;;;33.23;24.57;;;13.60;96.80;;;;;;4954746;28;20236;-83
2021/03/30 07:54:11;;;;;;;30.63;22.63;;;13.50;95.40;;;;;;4954735;28;20275;-82
2021/03/30 07:56:51;;;;;;;32.23;22.67;;;13.40;94.30;;;;;;4947011;28;20197;-85
2021/03/30 07:59:47;;;;;;;33.40;22.73;;;13.40;94.90;;;;;;4951834;28;20531;-84
2021/03/30 08:02:24;;;;;;;30.70;23.27;;;13.40;95.10;;;;;;4950858;28;20292;-84
2021/03/30 08:05:21;;;;;;;29.87;23.87;;;13.50;95.80;;;;;;4954107;28;20250;-84
2021/03/30 08:07:53;;;;;;;30.97;23.97;;;13.60;95.30;;;;;;4950718;28;20205;-85
2021/03/30 08:10:26;;;;;;;29.83;23.20;;;13.70;95.10;;;;;;4954009;28;20257;-85
2021/03/30 08:13:27;;;;;;;33.17;24.93;;;13.90;96.00;;;;;;4949850;28;20217;-84
2021/03/30 08:15:56;;;;;;;33.80;25.50;;;14.10;94.20;;;;;;4954630;28;20205;-85
2021/03/30 08:18:26;;;;;;;34.03;24.37;;;14.40;94.40;;;;;;4959040;28;20218;-83
2021/03/30 08:21:00;;;;;;;33.30;25.83;;;14.40;93.10;;;;;;4938528;28;20594;-83
2021/03/30 08:23:29;;;;;;;32.03;25.33;;;14.30;92.90;;;;;;4955760;28;20272;-83
2021/03/30 08:26:17;;;;;;;32.63;27.07;;;14.40;93.00;;;;;;4950694;28;20303;-83
2021/03/30 08:28:59;;;;;;;31.27;25.60;;;14.30;92.50;;;;;;4949415;28;20651;-83
2021/03/30 08:31:30;;;;;;;31.77;26.83;;;14.40;92.50;;;;;;4950372;28;20249;-85
2021/03/30 08:34:00;;;;;;;33.67;26.77;;;14.20;92.70;;;;;;4960776;28;20200;-84
2021/03/30 08:36:31;;;;;;;35.43;27.27;;;14.10;92.90;;;;;;4961924;28;20316;-83
2021/03/30 08:39:02;;;;;;;32.93;26.13;;;14.30;92.70;;;;;;4961314;28;20213;-83
2021/03/30 08:41:53;;;;;;;33.53;26.60;;;14.30;92.60;;;;;;4950240;28;20269;-83
2021/03/30 08:44:29;;;;;;;37.87;27.23;;;14.20;92.70;;;;;;4951628;28;20201;-84
2021/03/30 08:47:26;;;;;;;32.60;27.33;;;14.10;93.00;;;;;;4963934;28;20200;-83
2021/03/30 08:50:13;;;;;;;36.17;28.33;;;14.10;93.60;;;;;;4971675;28;20193;-85
2021/03/30 08:52:41;;;;;;;30.40;26.53;;;14.00;93.30;;;;;;4960905;28;20441;-86
2021/03/30 08:55:09;;;;;;;35.37;27.37;;;14.10;93.90;;;;;;4969312;28;20315;-86
2021/03/30 08:57:38;;;;;;;40.00;28.53;;;14.30;93.90;;;;;;4912992;28;20264;-86
2021/03/30 09:00:14;;;;;;;34.23;27.50;;;14.30;93.40;;;;;;4838462;29;20211;-84
2021/03/30 09:02:44;;;;;;;35.60;27.83;;;14.50;93.30;;;;;;4859529;29;20207;-86
2021/03/30 09:05:18;;;;;;;32.37;26.87;;;14.50;92.90;;;;;;4851734;29;20426;-86
2021/03/30 09:07:49;;;;;;;35.27;26.97;;;14.70;92.20;;;;;;4847780;29;20203;-87
2021/03/30 09:10:18;;;;;;;30.63;26.43;;;14.80;92.20;;;;;;4913598;29;20207;-85
2021/03/30 09:12:50;;;;;;;33.17;27.33;;;14.80;92.20;;;;;;4913385;29;20207;-85
2021/03/30 09:15:20;;;;;;;31.13;27.37;;;14.70;91.60;;;;;;4915842;29;20286;-85
2021/03/30 09:17:55;;;;;;;36.50;28.17;;;14.70;92.00;;;;;;4915403;29;20208;-85
2021/03/30 09:20:26;;;;;;;32.13;26.60;;;14.60;92.10;;;;;;4923762;29;20270;-85
2021/03/30 09:22:56;;;;;;;34.20;26.40;;;14.70;91.80;;;;;;4921700;29;20199;-84
2021/03/30 09:25:33;;;;;;;33.17;26.67;;;14.60;92.20;;;;;;4919696;29;20219;-87
2021/03/30 09:28:01;;;;;;;35.63;28.00;;;14.60;92.30;;;;;;4917000;29;20194;-84
2021/03/30 09:30:36;;;;;;;37.13;27.83;;;14.60;92.20;;;;;;4923951;29;20320;-85
2021/03/30 09:33:07;;;;;;;33.77;26.37;;;14.60;92.70;;;;;;4917066;29;20227;-83
2021/03/30 09:35:37;;;;;;;31.63;24.60;;;14.60;92.30;;;;;;4923062;28;20222;-83
2021/03/30 09:38:06;;;;;;;34.37;26.87;;;14.40;91.90;;;;;;4900742;29;20221;-84
2021/03/30 09:40:35;;;;;;;32.50;26.70;;;14.20;92.40;;;;;;4901331;29;20207;-83
2021/03/30 09:43:07;;;;;;;33.17;26.73;;;14.10;93.10;;;;;;4900682;29;20254;-84
2021/03/30 09:45:38;;;;;;;32.80;26.33;;;14.10;93.50;;;;;;4897644;29;20207;-85
2021/03/30 09:48:12;;;;;;;29.77;24.47;;;14.30;93.80;;;;;;4898777;29;20305;-85
2021/03/30 09:50:45;;;;;;;31.73;24.40;;;14.20;93.20;;;;;;4897882;29;20238;-84
2021/03/30 09:53:12;;;;;;;30.97;25.30;;;14.30;93.00;;;;;;4902789;29;20209;-85
2021/03/30 09:55:42;;;;;;;30.73;24.67;;;14.30;93.40;;;;;;4906922;29;20208;-84
2021/03/30 09:58:11;;;;;;;28.37;24.50;;;14.30;93.20;;;;;;4913331;29;20483;-85
2021/03/30 10:00:45;;;;;;;31.77;24.23;;;14.40;93.00;;;;;;4922049;29;20198;-85
2021/03/30 10:03:13;;;;;;;29.83;23.33;;;14.40;92.40;;;;;;4914504;29;20234;-82
2021/03/30 10:05:46;;;;;;;25.40;22.57;;;14.40;93.20;;;;;;4909896;29;20261;-82
2021/03/30 10:08:21;;;;;;;24.03;18.57;;;14.40;93.20;;;;;;4903225;29;20201;-84
2021/03/30 10:10:51;;;;;;;21.53;17.93;;;14.50;93.10;;;;;;4900842;29;20321;-86
2021/03/30 10:13:24;;;;;;;22.23;17.83;;;14.60;92.40;;;;;;4903110;29;20438;-84
2021/03/30 10:15:55;;;;;;;20.63;18.43;;;14.40;92.30;;;;;;4898124;29;20628;-86
2021/03/30 10:18:26;;;;;;;24.43;20.23;;;14.30;93.00;;;;;;4899488;29;20218;-85
2021/03/30 10:20:56;;;;;;;23.90;19.33;;;14.30;92.80;;;;;;4900993;29;20207;-83
2021/03/30 10:23:28;;;;;;;24.70;19.50;;;14.40;92.30;;;;;;4899228;29;20222;-85
2021/03/30 10:26:12;;;;;;;23.93;19.27;;;14.20;92.70;;;;;;4902726;29;20206;-84
2021/03/30 10:28:40;;;;;;;27.73;20.60;;;14.00;93.20;;;;;;4900170;29;20234;-83
2021/03/30 10:31:15;;;;;;;27.43;21.80;;;14.00;93.90;;;;;;4899282;29;20282;-84
2021/03/30 10:33:48;;;;;;;24.87;21.07;;;13.90;94.30;;;;;;4902935;29;20218;-82
2021/03/30 10:36:17;;;;;;;23.13;20.70;;;13.90;94.20;;;;;;4897744;29;20451;-83
2021/03/30 10:39:04;;;;;;;24.10;19.80;;;13.90;94.30;;;;;;4895471;29;20253;-81
2021/03/30 10:41:34;;;;;;;26.83;20.63;;;14.00;94.40;;;;;;4906020;29;20210;-83
2021/03/30 10:44:03;;;;;;;20.63;18.40;;;14.40;93.40;;;;;;4906839;29;20215;-82
2021/03/30 10:46:41;;;;;;;23.17;18.80;;;14.60;92.60;;;;;;4914332;29;20214;-83
2021/03/30 10:49:09;;;;;;;20.60;18.20;;;15.00;92.40;;;;;;4916172;29;20250;-83
2021/03/30 10:51:44;;;;;;;19.50;17.27;;;15.20;91.60;;;;;;4914685;29;20669;-82
2021/03/30 10:54:18;;;;;;;21.03;16.27;;;15.20;91.50;;;;;;4917121;29;20224;-85
2021/03/30 10:56:47;;;;;;;19.50;16.83;;;15.10;91.40;;;;;;4922512;29;20713;-85
2021/03/30 10:59:17;;;;;;;17.50;15.63;;;14.80;91.30;;;;;;4915110;29;20203;-84
2021/03/30 11:01:51;;;;;;;18.00;15.50;;;14.50;91.70;;;;;;4909621;29;20226;-86
2021/03/30 11:04:20;;;;;;;19.97;16.33;;;14.20;92.20;;;;;;4912647;29;20209;-83
2021/03/30 11:06:47;;;;;;;17.40;15.60;;;14.00;92.90;;;;;;4917476;29;20504;-83
2021/03/30 11:09:15;;;;;;;18.10;15.77;;;13.90;93.60;;;;;;4909290;29;20235;-84
2021/03/30 11:11:43;;;;;;;15.93;13.97;;;13.80;93.90;;;;;;4913464;29;20227;-85
2021/03/30 11:14:11;;;;;;;15.10;13.57;;;13.70;93.80;;;;;;4908820;29;20291;-83
2021/03/30 11:16:39;;;;;;;14.03;11.40;;;13.80;93.70;;;;;;4913373;29;20211;-83
2021/03/30 11:19:08;;;;;;;12.50;9.63;;;13.90;92.80;;;;;;4915196;29;20203;-84
2021/03/30 11:21:37;;;;;;;12.70;8.93;;;14.00;92.10;;;;;;4913857;29;20211;-83
2021/03/30 11:24:06;;;;;;;10.40;8.83;;;14.00;91.90;;;;;;4925770;29;20195;-83
2021/03/30 11:26:37;;;;;;;9.20;8.17;;;14.10;91.70;;;;;;4917803;29;20187;-82
2021/03/30 11:29:05;;;;;;;9.03;7.87;;;14.20;91.90;;;;;;4914414;29;20617;-83
2021/03/30 11:31:47;;;;;;;7.03;6.37;;;14.20;91.60;;;;;;4909525;29;20270;-85
2021/03/30 11:34:20;;;;;;;7.77;6.43;;;14.10;91.00;;;;;;4904874;29;20297;-85
2021/03/30 11:36:52;;;;;;;6.90;6.10;;;14.00;91.30;;;;;;4904591;29;20229;-83
2021/03/30 11:39:20;;;;;;;7.87;7.07;;;13.90;91.60;;;;;;4900453;29;20207;-84
2021/03/30 11:41:49;;;;;;;7.23;6.53;;;13.90;91.80;;;;;;4901044;29;20215;-86
2021/03/30 11:44:33;;;;;;;7.00;6.10;;;13.90;91.70;;;;;;4908664;29;20207;-86
2021/03/30 11:47:05;;;;;;;11.10;6.87;;;14.00;91.90;;;;;;4904548;29;20261;-84
2021/03/30 11:49:35;;;;;;;7.00;6.20;;;14.00;91.90;;;;;;4898974;29;20207;-84
2021/03/30 11:52:04;;;;;;;6.57;5.90;;;14.00;91.70;;;;;;4900819;29;20326;-85
2021/03/30 11:54:32;;;;;;;9.03;6.43;;;13.90;91.60;;;;;;4896941;29;20203;-83
2021/03/30 11:57:02;;;;;;;8.63;7.10;;;13.90;92.20;;;;;;4907463;29;20530;-86
2021/03/30 11:59:30;;;;;;;9.00;7.23;;;13.80;92.00;;;;;;4898680;29;20589;-85
2021/03/30 12:01:58;;;;;;;8.80;7.60;;;13.80;92.60;;;;;;4904069;29;20211;-85
2021/03/30 12:04:26;;;;;;;8.63;7.23;;;13.90;92.50;;;;;;4901418;29;20230;-84
2021/03/30 12:06:56;;;;;;;9.60;7.13;;;14.00;92.30;;;;;;4902387;29;20207;-82
2021/03/30 12:09:24;;;;;;;9.70;7.00;;;14.10;92.40;;;;;;4894974;29;20199;-83
2021/03/30 12:11:54;;;;;;;11.00;8.23;;;14.10;92.00;;;;;;4900250;29;20823;-84
2021/03/30 12:14:21;;;;;;;10.63;9.53;;;14.10;92.00;;;;;;4896355;29;20202;-84
2021/03/30 12:16:51;;;;;;;12.27;10.63;;;14.00;92.20;;;;;;4897044;29;20214;-85
2021/03/30 12:19:20;;;;;;;19.83;13.70;;;14.00;92.70;;;;;;4899319;29;20203;-84
2021/03/30 12:21:48;;;;;;;17.73;13.10;;;14.00;92.80;;;;;;4901229;29;20517;-83
2021/03/30 12:24:16;;;;;;;19.27;14.97;;;14.30;92.80;;;;;;4912168;29;20221;-84
2021/03/30 12:26:44;;;;;;;24.50;17.37;;;14.40;92.40;;;;;;4917435;29;20538;-84
2021/03/30 12:29:12;;;;;;;24.47;18.40;;;14.50;91.70;;;;;;4908724;29;20207;-85
2021/03/30 12:31:42;;;;;;;26.83;20.47;;;14.50;91.20;;;;;;4914356;29;20223;-86
2021/03/30 12:34:12;;;;;;;24.43;19.67;;;14.40;91.40;;;;;;4911016;29;20318;-84
2021/03/30 12:36:41;;;;;;;28.00;20.03;;;14.30;91.40;;;;;;4898544;29;20203;-85
2021/03/30 12:39:10;;;;;;;26.37;20.53;;;14.20;91.80;;;;;;4898417;29;20210;-85
2021/03/30 12:41:40;;;;;;;28.07;21.70;;;14.10;92.30;;;;;;4893376;29;20211;-85
2021/03/30 12:44:08;;;;;;;29.30;21.83;;;14.00;92.60;;;;;;4905459;29;20222;-84
2021/03/30 12:46:35;;;;;;;30.07;23.43;;;14.00;92.70;;;;;;4917893;29;20219;-83
2021/03/30 12:49:04;;;;;;;30.83;23.73;;;14.00;92.80;;;;;;4913322;29;20221;-84
2021/03/30 12:51:32;;;;;;;31.33;24.03;;;13.90;92.90;;;;;;4913721;29;20227;-84